^^

METAR Reports from Airports

within 500 km


 What is a METAR ??? 

First is the nearest airport (Thessaloniki LGTS 6km) and
finally the most distance (Istanbul LTBA 494km).
Also some reports have less data, because the original
ones are not complete or have wrong format.
Go to METAR Reports from Weather Stations )  
Alphabetical Quick Jump List to the 48 Airports
(AFB)Air Force Base
LGTS - Airport "Makedonia"
Thessaloniki - Central Macedonia - Greece
Lat: 40.5167 - Long: 22.9667 - Elev: 7m
Distance from Vouhead Weather: (S) 6km
Updated: 22/07/2024 04:20
Few Clouds
Few Clouds
 Wind from varies
Wind: Varies 4 km/h
Temperature: 27°C
Heat Index: 29°C
Dew Point: 22°C
Humidity: 74%
Barometer: 1007 hPa
Clouds: Few Clouds
Visibility: 10 km
Cloud analysis: Few Clouds 914 m
2024/07/22 01:20 LGTS 220120Z VRB02KT 9999 FEW030 27/22 Q1007 NOSIG
LGKZ - Airport "Filippos"
Kozani - West Macedonia - Greece
Lat: 40.2833 - Long: 21.8333 - Elev: 628m
Distance from Vouhead Weather: (WSW) 102km
Updated: 22/07/2024 04:20

 Wind from varies
Wind: Varies 6 km/h
Temperature: 24°C
Dew Point: 11°C
Humidity: 44%
Barometer: 1011 hPa
2024/07/22 01:20 LGKZ 220120Z AUTO VRB03KT //// // ////// 24/11 Q1011 RE//
 
LGKV - Airport "Megas Alexandros"
Kavala(Chrysoupoli) - E. Macedonia & Thrace - Greece
Lat: 40.9167 - Long: 24.6167 - Elev: 5m
Distance from Vouhead Weather: (ENE) 144km
Updated: 21/07/2024 21:50
NOT CURRENT METAR
Few Clouds
Few Clouds
 Wind from calm
Wind: Calm 
Temperature: 26°C
Dew Point: 21°C
Humidity: 74%
Barometer: 1006 hPa
Clouds: Few Clouds
Visibility: 10 km
Cloud analysis: Few Clouds 762 m
2024/07/21 18:50 LGKV 211850Z 00000KT 9999 FEW025 26/21 Q1006
LGBL - Airport at Nea Anchialos
Volos(Almyros) - Thessaly - Greece
Lat: 39.2167 - Long: 22.8000 - Elev: 26m
Distance from Vouhead Weather: (S) 151km
Updated: 22/07/2024 03:50
Clear
Clear
 Wind from calm
Wind: Calm 
Temperature: 25°C
Dew Point: 18°C
Humidity: 65%
Barometer: 1006 hPa
Summary: Clear
Visibility: Greater than 10 km
2024/07/22 00:50 LGBL 220050Z 00000KT CAVOK 25/18 Q1006
 
LGSK - Airport "Alexandros Papadiamandis"
Skiathos - Thessaly Sporades - Greece
Lat: 39.1833 - Long: 23.5000 - Elev: 15m
Distance from Vouhead Weather: (SSE) 160km
Updated: 21/07/2024 23:20
NOT CURRENT METAR
Clear
Clear
 Wind from S
Wind: S 9 km/h
Temperature: 28°C
Heat Index: 30°C
Dew Point: 22°C
Humidity: 70%
Barometer: 1005 hPa
Summary: Clear
Visibility: Greater than 10 km
2024/07/21 20:20 LGSK 212020Z 18005KT CAVOK 28/22 Q1005
LWSK - Airport "Skopje International Airport"
Skopje(Petrovac) - Skopje Region - R.Ν.M
Lat: 41.9667 - Long: 21.6333 - Elev: 239m
Distance from Vouhead Weather: (NW) 192km
Updated: 22/07/2024 04:20
Clear
Clear
 Wind from varies
Wind: Varies 4 km/h
Temperature: 23°C
Dew Point: 17°C
Humidity: 69%
Barometer: 1010 hPa
Summary: Clear
Visibility: Greater than 10 km
2024/07/22 01:20 LWSK 220120Z VRB02KT CAVOK 23/17 Q1010 NOSIG
 
LWOH - Airport "St. Paul the Apostle"
Ohrid - Southwestern Region - R.Ν.M
Lat: 41.1167 - Long: 20.8000 - Elev: 761m
Distance from Vouhead Weather: (WNW) 193km
Updated: 22/07/2024 04:20
Clear
Clear
 Wind from WNW
Wind: WNW 7 km/h
Temperature: 16°C
Dew Point: 14°C
Humidity: 88%
Barometer: 1014 hPa
Summary: Clear
Visibility: Greater than 10 km
2024/07/22 01:20 LWOH 220120Z 29004KT 260V020 CAVOK 16/14 Q1014
LGLM - Airport "Hephaestus"
Lemnos - North Aegean - Greece
Lat: 39.9167 - Long: 25.2333 - Elev: 5m
Distance from Vouhead Weather: (ESE) 205km
Updated: 22/07/2024 03:50
Clear
Clear
 Wind from calm
Wind: Calm 
Temperature: 25°C
Dew Point: 20°C
Humidity: 74%
Barometer: 1006 hPa
Summary: Clear
Visibility: Greater than 10 km
2024/07/22 00:50 LGLM 220050Z 00000KT CAVOK 25/20 Q1006
 
LGIO - Airport "King Pyrrhus"
Ioannina - Epirus - Greece
Lat: 39.7000 - Long: 20.8167 - Elev: 476m
Distance from Vouhead Weather: (WSW) 207km
Updated: 22/07/2024 04:20

 Wind from varies
Wind: Varies 4 km/h
Temperature: 20°C
Dew Point: 18°C
Humidity: 88%
Barometer: 1012 hPa
2024/07/22 01:20 LGIO 220120Z AUTO VRB02KT //// // ////// 20/18 Q1012 RE//
LGSY - Airport at Skyros
Skyros - Thessaly Sporades - Greece
Lat: 38.9667 - Long: 24.4833 - Elev: 15m
Distance from Vouhead Weather: (SE) 220km
Updated: 21/07/2024 20:50
NOT CURRENT METAR
Clear
Clear
 Wind from varies
Wind: Varies 4 km/h
Temperature: 30°C
Dew Point: 14°C
Humidity: 38%
Barometer: 1005 hPa
Summary: Clear
Visibility: Greater than 10 km
2024/07/21 17:50 LGSY 211750Z VRB02KT CAVOK 30/14 Q1005 BLU
 
LBPD - Airport at Plovdiv
Plovdiv(Krumovo) - Plovdiv - Bulgaria
Lat: 42.1333 - Long: 24.8000 - Elev: 185m
Distance from Vouhead Weather: (NE) 231km
Updated: 22/07/2024 04:30
Mostly Cloudy
Mostly Cloudy
 Wind from SSE
Wind: SSE 6 km/h
Temperature: 24°C
Dew Point: 18°C
Humidity: 69%
Barometer: 1009 hPa
Clouds: Mostly Cloudy
Visibility: 10 km
Cloud analysis: Mostly Cloudy 3658 m
Mostly Cloudy 4267 m
2024/07/22 01:30 LBPD 220130Z AUTO 16003KT 9999 BKN120/// BKN140/// 24/18 Q1009
LBSF - Airport at Sofia
Sofia(Vrazhdebna) - Sofia Capital - Bulgaria
Lat: 42.6500 - Long: 23.3833 - Elev: 595m
Distance from Vouhead Weather: (N) 234km
Updated: 22/07/2024 04:30
Clear
Clear
 Wind from ESE
Wind: ESE 9 km/h
Temperature: 20°C
Dew Point: 18°C
Humidity: 88%
Barometer: 1012 hPa
Clouds: Clear
Visibility: 10 km
2024/07/22 01:30 LBSF 220130Z AUTO 11005KT 9999 NCD 20/18 Q1012 NOSIG
 
LGAL - Airport "Dimokritos"
Alexandroupolis - E. Macedonia & Thrace - Greece
Lat: 40.8500 - Long: 25.9167 - Elev: 3m
Distance from Vouhead Weather: (E) 250km
Updated: 22/07/2024 02:50
NOT CURRENT METAR
Clear
Clear
 Wind from calm
Wind: Calm 
Temperature: 27°C
Heat Index: 28°C
Dew Point: 19°C
Humidity: 62%
Barometer: 1007 hPa
Summary: Clear
Visibility: Greater than 10 km
2024/07/21 23:50 LGAL 212350Z 00000KT CAVOK 27/19 Q1007
BKPR - Airport "Adem Jashari"
Prishtina - Prishtina - Kosovo
(Hellenic Ministry of Foreign Affairs, about Kosovo)
Lat: 42.5833 - Long: 21.0333 - Elev: 576m
Distance from Vouhead Weather: (NW) 276km
Updated: 22/07/2024 04:30
Partly Cloudy
Partly Cloudy
 Wind from NE
Wind: NE 6 km/h
Temperature: 20°C
Dew Point: 18°C
Humidity: 88%
Barometer: 1013 hPa
Clouds: Partly Cloudy
Visibility: 10 km
Cloud analysis: Partly Cloudy 1524 m
2024/07/22 01:30 BKPR 220130Z 05003KT 9999 SCT050 20/18 Q1013 NOSIG
 
LGKR - Airport "Ioannis Kapodistrias"
Kerkyra - Ionian Islands - Greece
Lat: 39.6000 - Long: 19.9167 - Elev: 2m
Distance from Vouhead Weather: (WSW) 281km
Updated: 22/07/2024 04:20
Clear
Clear
 Wind from varies
Wind: Varies 6 km/h
Temperature: 28°C
Heat Index: 30°C
Dew Point: 22°C
Humidity: 70%
Barometer: 1008 hPa
Summary: Clear
Visibility: Greater than 10 km
2024/07/22 01:20 LGKR 220120Z VRB03KT CAVOK 28/22 Q1008 NOSIG
LATI - Airport "Mother Teresa"
Tirana(Rinas) - Tirana - Albania
Lat: 41.3167 - Long: 19.7667 - Elev: 90m
Distance from Vouhead Weather: (WNW) 282km
Updated: 22/07/2024 04:20
Clear
Clear
 Wind from varies
Wind: Varies 4 km/h
Temperature: 22°C
Dew Point: 22°C
Humidity: 100%
Barometer: 1010 hPa
Summary: Clear
Visibility: Greater than 10 km
2024/07/22 01:20 LATI 220120Z VRB02KT CAVOK 22/22 Q1010 NOSIG
 
LGEL - Airport at Elefsis(AFB)
Elefsis - Attica - Greece
Lat: 38.0667 - Long: 23.5500 - Elev: 31m
Distance from Vouhead Weather: (S) 282km
Updated: 22/07/2024 04:20

 Wind from calm
Wind: Calm 
Temperature: 27°C
Heat Index: 27°C
Dew Point: 14°C
Humidity: 45%
Barometer: 1006 hPa
2024/07/22 01:20 LGEL 220120Z AUTO 00000KT //// // ////// 27/14 Q1006 RE//
LGPZ - Airport at Preveza
Preveza(Aktion) - Epirus - Greece
Lat: 38.6167 - Long: 20.7667 - Elev: 4m
Distance from Vouhead Weather: (SW) 288km
Updated: 22/07/2024 03:50
Few Clouds
Few Clouds
 Wind from WSW
Wind: WSW 11 km/h
Temperature: 28°C
Heat Index: 33°C
Dew Point: 26°C
Humidity: 89%
Barometer: 1008 hPa
Clouds: Few Clouds
Visibility: 10 km
Cloud analysis: Few Clouds 457 m
2024/07/22 00:50 LGPZ 220050Z 24006KT 9999 FEW015 28/26 Q1008
 
LGRX - Airport at Patras(AFB)
Patras(Araxos) - West Greece - Greece
Lat: 38.1667 - Long: 21.4167 - Elev: 15m
Distance from Vouhead Weather: (SSW) 299km
Updated: 22/07/2024 03:50
Clear
Clear
 Wind from calm
Wind: Calm 
Temperature: 25°C
Dew Point: 22°C
Humidity: 83%
Barometer: 1009 hPa
Summary: Clear
Visibility: Greater than 10 km
2024/07/22 00:50 LGRX 220050Z 00000KT CAVOK 25/22 Q1009
LGAV - Airport "Eleftherios Venizelos"
Athens(Spata) - Attica - Greece
Lat: 37.9333 - Long: 23.9500 - Elev: 94m
Distance from Vouhead Weather: (SSE) 305km
Updated: 22/07/2024 04:20
Clear
Clear
 Wind from varies
Wind: Varies 4 km/h
Temperature: 25°C
Dew Point: 15°C
Humidity: 54%
Barometer: 1007 hPa
Summary: Clear
Visibility: Greater than 10 km
2024/07/22 01:20 LGAV 220120Z VRB02KT CAVOK 25/15 Q1007 NOSIG
 
LYNI - Airport "Constantine The Great"
Nis - Southern and Eastern Serbia - Serbia
Lat: 43.3167 - Long: 21.8833 - Elev: 202m
Distance from Vouhead Weather: (NNW) 319km
Updated: 22/07/2024 04:30
Clear
Clear
 Wind from varies
Wind: Varies 2 km/h
Temperature: 21°C
Dew Point: 21°C
Humidity: 100%
Barometer: 1011 hPa
Summary: Clear
Visibility: Greater than 10 km
2024/07/22 01:30 LYNI 220130Z VRB01KT CAVOK 21/21 Q1011 NOSIG
LGAD - Airport at Andravida(AFB)
Andravida - West Greece - Greece
Lat: 37.9167 - Long: 21.2667 - Elev: 12m
Distance from Vouhead Weather: (SSW) 329km
Updated: 22/07/2024 04:20
Clear
Clear
 Wind from calm
Wind: Calm 
Temperature: 23°C
Dew Point: 22°C
Humidity: 94%
Barometer: 1009 hPa
Summary: Clear
Visibility: Greater than 10 km
2024/07/22 01:20 LGAD 220120Z 00000KT CAVOK 23/22 Q1009
 
LGKF - Airport at Kefalonia
Kefalonia - Ionian Islands - Greece
Lat: 38.1167 - Long: 20.5000 - Elev: 18m
Distance from Vouhead Weather: (SW) 346km
Updated: 22/07/2024 01:50
NOT CURRENT METAR
Clear
Clear
 Wind from NW
Wind: NW 13 km/h
Temperature: 27°C
Heat Index: 31°C
Dew Point: 25°C
Humidity: 89%
Barometer: 1009 hPa
Summary: Clear
Visibility: Greater than 10 km
2024/07/21 22:50 LGKF 212250Z 32007KT CAVOK 27/25 Q1009
LGMT - Airport "Odysseas Elytis"
Lesvos - North Aegean - Greece
Lat: 39.0500 - Long: 26.6000 - Elev: 17m
Distance from Vouhead Weather: (ESE) 353km
Updated: 21/07/2024 23:50
NOT CURRENT METAR
Clear
Clear
 Wind from calm
Wind: Calm 
Temperature: 26°C
Dew Point: 23°C
Humidity: 84%
Barometer: 1006 hPa
Summary: Clear
Visibility: Greater than 10 km
2024/07/21 20:50 LGMT 212050Z 00000KT CAVOK 26/23 Q1006
 
LGZA - Airport "Dionysios Solomos"
Zakynthos - Ionian Islands - Greece
Lat: 37.7500 - Long: 20.8667 - Elev: 3m
Distance from Vouhead Weather: (SSW) 362km
Updated: 22/07/2024 04:20
Clear
Clear
 Wind from calm
Wind: Calm 
Temperature: 24°C
Dew Point: 18°C
Humidity: 69%
Barometer: 1009 hPa
Summary: Clear
Visibility: Greater than 10 km
2024/07/22 01:20 LGZA 220120Z 00000KT CAVOK 24/18 Q1009
LBGO - Airport at Gorna Oryahovitsa
Gorna Oryahovitsa - Veliko Tarnovo - Bulgaria
Lat: 43.1500 - Long: 25.7167 - Elev: 86m
Distance from Vouhead Weather: (NE) 366km
Updated: 22/07/2024 04:30
Clear
Clear
 Wind from calm
Wind: Calm 
Temperature: 19°C
Dew Point: 19°C
Humidity: 100%
Barometer: 1009 hPa
Clouds: Clear
Visibility: 7 km
2024/07/22 01:30 LBGO 220130Z AUTO 00000KT 7000 NCD 19/19 Q1009
 
LGHI - Airport "Omiros"
Chios - Ionian Islands - Greece
Lat: 38.3167 - Long: 26.1167 - Elev: 4m
Distance from Vouhead Weather: (SE) 368km
Updated: 21/07/2024 23:50
NOT CURRENT METAR
Clear
Clear
 Wind from varies
Wind: Varies 4 km/h
Temperature: 26°C
Dew Point: 21°C
Humidity: 74%
Barometer: 1005 hPa
Summary: Clear
Visibility: Greater than 10 km
2024/07/21 20:50 LGHI 212050Z VRB02KT CAVOK 26/21 Q1005
LYPG - Airport at Podgorica
Podgorica - Golubovci - Montenegro
Lat: 42.3667 - Long: 19.2500 - Elev: 43m
Distance from Vouhead Weather: (NW) 369km
Updated: 22/07/2024 04:30
Clear
Clear
 Wind from NNE
Wind: NNE 6 km/h
Temperature: 24°C
Dew Point: 19°C
Humidity: 74%
Barometer: 1010 hPa
Summary: Clear
Visibility: Greater than 10 km
2024/07/22 01:30 LYPG 220130Z AUTO 03003KT CAVOK 24/19 Q1010
 
LGSO - Airport "Demetrius Vikelas"
Syros - South Aegean - Greece
Lat: 37.4167 - Long: 24.9500 - Elev: 72m
Distance from Vouhead Weather: (SSE) 390km
Updated: 22/07/2024 04:20

 Wind from W
Wind: W 11 km/h
Temperature: 29°C
Heat Index: 29°C
Dew Point: 15°C
Humidity: 43%
Barometer: 1007 hPa
2024/07/22 01:20 LGSO 220120Z AUTO 27006KT 240V320 //// // ////// 29/15 Q1007 RE//
LGKL - Airport at Kalamata(AFB)
Kalamata - Peloponnese - Greece
Lat: 37.0667 - Long: 22.0167 - Elev: 8m
Distance from Vouhead Weather: (SSW) 398km
Updated: 22/07/2024 04:20

 Wind from WNW
Wind: WNW 7 km/h
Temperature: 23°C
Dew Point: 19°C
Humidity: 78%
Barometer: 1008 hPa
2024/07/22 01:20 LGKL 220120Z AUTO 29004KT 280V340 //// // ////// 23/19 Q1008 RE//
 
LIBY - Airport at Santa Maria di Leuca
Santa Maria di Leuca - Apulia(Lecce) - Italy
Lat: 39.8167 - Long: 18.3500 - Elev: 112m
Distance from Vouhead Weather: (W) 402km
Updated: 22/07/2024 03:55

 Wind from WNW
Wind: WNW 13 km/h
Temperature: 27°C
Heat Index: 31°C
Dew Point: 24°C
Humidity: 84%
Barometer: 1009 hPa
2024/07/22 00:55 LIBY 220055Z AUTO 30007KT //// 27/24 Q1009
LGMK - Airport at Mykonos
Mykonos - South Aegean - Greece
Lat: 37.4333 - Long: 25.3500 - Elev: 123m
Distance from Vouhead Weather: (SSE) 404km
Updated: 22/07/2024 04:20
Clear
Clear
 Wind from varies
Wind: Varies 6 km/h
Temperature: 25°C
Dew Point: 20°C
Humidity: 74%
Barometer: 1007 hPa
Summary: Clear
Visibility: Greater than 10 km
2024/07/22 01:20 LGMK 220120Z VRB03KT CAVOK 25/20 Q1007
 
LYTV - Airport at Tivat
Tivat - Tivat - Montenegro
Lat: 42.3833 - Long: 18.7167 - Elev: 5m
Distance from Vouhead Weather: (WNW) 408km
Updated: 22/07/2024 04:30
Clear
Clear
 Wind from varies
Wind: Varies 4 km/h
Temperature: 20°C
Dew Point: 19°C
Humidity: 94%
Barometer: 1009 hPa
Summary: Clear
Visibility: Greater than 10 km
2024/07/22 01:30 LYTV 220130Z AUTO VRB02KT CAVOK 20/19 Q1009
LIBN - Airport at Galatina(AFB)
Galatina - Apulia(Lecce) - Italy
Lat: 40.2167 - Long: 18.1333 - Elev: 61m
Distance from Vouhead Weather: (W) 412km
Updated: 22/07/2024 03:55
Clear
Clear
 Wind from varies
Wind: Varies 2 km/h
Temperature: 26°C
Dew Point: 24°C
Humidity: 89%
Barometer: 1010 hPa
Summary: Clear
Visibility: Greater than 10 km
2024/07/22 00:55 LIBN 220055Z VRB01KT CAVOK 26/24 Q1010
 
LYKV - Airport at Kraljevo & Ladevci
Kraljevo(Obrva) - Sumadija & W. Serbia - Serbia
Lat: 43.8167 - Long: 20.5833 - Elev: 209m
Distance from Vouhead Weather: (NNW) 412km
Updated: 22/07/2024 04:30
Partly Cloudy
Partly Cloudy
 Wind from calm
Wind: Calm 
Temperature: 19°C
Dew Point: 19°C
Humidity: 100%
Barometer: 1011 hPa
Clouds: Partly Cloudy
Visibility: 8 km
2024/07/22 01:30 LYKV 220130Z 00000KT 8000 NSC 19/19 Q1011 NOSIG
LTBU - Airport at Corlu(AFB)
Corlu - Marmara(Tekirdag) - Turkey
Lat: 41.1167 - Long: 27.9167 - Elev: 173m
Distance from Vouhead Weather: (E) 420km
Updated: 22/07/2024 04:20
Clear
Clear
 Wind from N
Wind: N 11 km/h
Temperature: 22°C
Dew Point: 17°C
Humidity: 73%
Barometer: 1008 hPa
Summary: Clear
Visibility: Greater than 10 km
2024/07/22 01:20 LTBU 220120Z 36006KT CAVOK 22/17 Q1008
 
LRCV - Airport at Craiova
Craiova - Dolj - Romania
Lat: 44.3167 - Long: 23.8833 - Elev: 191m
Distance from Vouhead Weather: (N) 424km
Updated: 22/07/2024 04:30
Clear
Clear
 Wind from WNW
Wind: WNW 6 km/h
Temperature: 21°C
Dew Point: 19°C
Humidity: 88%
Barometer: 1009 hPa
Summary: Clear
Visibility: Greater than 10 km
2024/07/22 01:30 LRCV 220130Z 30003KT CAVOK 21/19 Q1009
LIBR - Airport at Brindisi
(Unofficial airport name: Del Salento)
Brindisi(Papola-Casale) - Apulia(Brindisi) - Italy
Lat: 40.6500 - Long: 17.9500 - Elev: 10m
Distance from Vouhead Weather: (W) 424km
Updated: 22/07/2024 04:20
Clear
Clear
 Wind from varies
Wind: Varies 2 km/h
Temperature: 26°C
Dew Point: 22°C
Humidity: 79%
Barometer: 1009 hPa
Summary: Clear
Visibility: Greater than 10 km
2024/07/22 01:20 LIBR 220120Z VRB01KT CAVOK 26/22 Q1009
 
LBBG - Airport at Burgas
Burgas(Sarafovo) - Burgas - Bulgaria
Lat: 42.5000 - Long: 27.4833 - Elev: 28m
Distance from Vouhead Weather: (ENE) 432km
Updated: 22/07/2024 04:30
Clear
Clear
 Wind from WSW
Wind: WSW 6 km/h
Temperature: 23°C
Dew Point: 20°C
Humidity: 83%
Barometer: 1008 hPa
Clouds: Clear
Visibility: 10 km
2024/07/22 01:30 LBBG 220130Z AUTO 25003KT 9999 NCD 23/20 Q1008 NOSIG
LGPA - Airport "Panteleou"
Paros - South Aegean - Greece
Lat: 37.0000 - Long: 25.0667 - Elev: 36m
Distance from Vouhead Weather: (SSE) 436km
Updated: 22/07/2024 04:20

 Wind from N
Wind: N 13 km/h
Temperature: 26°C
Dew Point: 16°C
Humidity: 54%
Barometer: 1006 hPa
2024/07/22 01:20 LGPA 220120Z AUTO 01007KT //// // ////// 26/16 Q1006 RE//
 
LGNX - Airport at Naxos
Naxos - South Aegean - Greece
Lat: 37.0833 - Long: 25.3667 - Elev: 4m
Distance from Vouhead Weather: (SSE) 439km
Updated: 22/07/2024 00:50
NOT CURRENT METAR
Clear
Clear
 Wind from calm
Wind: Calm 
Temperature: 24°C
Dew Point: 18°C
Humidity: 69%
Barometer: 1007 hPa
Summary: Clear
Visibility: Greater than 10 km
2024/07/21 21:50 LGNX 212150Z 00000KT CAVOK 24/18 Q1007
LTBJ - Airport "Adnan Menderes"
Izmir - Aegean(Izmir) - Turkey
Lat: 38.2667 - Long: 27.1333 - Elev: 120m
Distance from Vouhead Weather: (SE) 439km
Updated: 22/07/2024 04:20
Clear
Clear
 Wind from SSE
Wind: SSE 4 km/h
Temperature: 22°C
Dew Point: 19°C
Humidity: 83%
Barometer: 1006 hPa
Summary: Clear
Visibility: Greater than 10 km
2024/07/22 01:20 LTBJ 220120Z 16002KT CAVOK 22/19 Q1006 NOSIG
 
LDDU - Airport at Dubrovnik
Dubrovnik(Cilipi) - Dubrovnik Neretva - Croatia
Lat: 42.5667 - Long: 18.2667 - Elev: 165m
Distance from Vouhead Weather: (WNW) 450km
Updated: 22/07/2024 04:30
Clear
Clear
 Wind from E
Wind: E 13 km/h
Temperature: 24°C
Dew Point: 17°C
Humidity: 65%
Barometer: 1010 hPa
Summary: Clear
Visibility: Greater than 10 km
2024/07/22 01:30 LDDU 220130Z 10007KT CAVOK 24/17 Q1010
LYUZ - Airport at Uzice & Ponikve
(Unofficial airport name: Lepa Glava)
Uzice - Sumadija & W. Serbia - Serbia
Lat: 43.9000 - Long: 19.7000 - Elev: 904m
Distance from Vouhead Weather: (NW) 458km
Updated: 04/11/2021 01:30
NOT CURRENT METAR

 Wind from varies
Wind: Varies 9 km/h
Temperature: 14°C
Dew Point: 7°C
Humidity: 63%
Barometer: 1010 hPa
Visibility: 10 km
2021/11/03 23:30 LYUZ 032330Z AUTO VRB05KT 9999 ////// 14/07 Q1010
 
LGSM - Airport "Aristarchos of Samos"
Samos - North Aegean - Greece
Lat: 37.6833 - Long: 26.9167 - Elev: 6m
Distance from Vouhead Weather: (SE) 467km
Updated: 22/07/2024 02:50
NOT CURRENT METAR
Clear
Clear
 Wind from NE
Wind: NE 11 km/h
Temperature: 26°C
Dew Point: 21°C
Humidity: 74%
Barometer: 1006 hPa
Summary: Clear
Visibility: Greater than 10 km
2024/07/21 23:50 LGSM 212350Z 05006KT CAVOK 26/21 Q1006
LIBG - Airport "Marcello Arlotta"
Monteiasi(Taranto-Grottaglie) - Apulia(Taranto) - Italy
Lat: 40.5167 - Long: 17.3833 - Elev: 69m
Distance from Vouhead Weather: (W) 472km
Updated: 21/07/2024 20:50
NOT CURRENT METAR
Clear
Clear
 Wind from SSE
Wind: SSE 7 km/h
Temperature: 31°C
Heat Index: 36°C
Dew Point: 23°C
Humidity: 62%
Barometer: 1008 hPa
Summary: Clear
Visibility: Greater than 10 km
2024/07/21 17:50 LIBG 211750Z 15004KT CAVOK 31/23 Q1008
 
LGKC - Airport at Kythira
Kythira(Heptanese) - Attica(Islands) - Greece
Lat: 36.2833 - Long: 23.0167 - Elev: 319m
Distance from Vouhead Weather: (S) 476km
Updated: 21/07/2024 16:50
NOT CURRENT METAR
Clear
Clear
 Wind from W
Wind: W 15 km/h
Temperature: 34°C
Dew Point: 17°C
Humidity: 36%
Barometer: 1010 hPa
Summary: Clear
Visibility: Greater than 10 km
2024/07/21 13:50 LGKC 211350Z 27008KT CAVOK 34/17 Q1010
LTBA - Airport "Ataturk"
Istanbul - Marmara(Istanbul) - Turkey
Lat: 40.9667 - Long: 28.8167 - Elev: 37m
Distance from Vouhead Weather: (E) 494km
Updated: 22/07/2024 04:20
Clear
Clear
 Wind from NNE
Wind: NNE 7 km/h
Temperature: 26°C
Dew Point: 16°C
Humidity: 54%
Barometer: 1007 hPa
Summary: Clear
Visibility: Greater than 10 km
2024/07/22 01:20 LTBA 220120Z 03004KT CAVOK 26/16 Q1007
   This data is not to be used for protection of life and property  
GO TO IONIA GO TO KALAMATA GO TO KIFISSIA GO TO SYROS GO TO DEXAMENI (BOLTEK) GO TO DEXAMENI (LR) GO TO LARISSA General Secretariat for Civil Protection European Emergency Call Number Video for Kastelorizo(Megisti) from ERT(state-TV) archives Municipality of Megisti website See it bigger